PWSweather.com
Personal Weather Stations
Station Observations
EDMONTONWEATHER
Edmonton, Edmonton, AB T5N 0Z3

EdmontonEdmonton, AB T5N 0Z3

Lat: 53.54155, Lon: -113.53337690000001

Elevation: 630

Station Type: Netatmo

http://my.meteoware.com/YegWeather/

Latest ConditionsUpdated 2:25:00 PM MST Sunday, Jan 19, 2020
Currently Today's Max Today's Min Today's Average
Temperature -2.0°F-18.9°C -2.0°F-18.9°C -9.4°F-23.0°C -7.2°F-21.8°C
Dew Point -4.5°F-20.3°C -4.5°F-20.3°C -12.6°F-24.8°C -10.2°F-23.4°C
Winds - N N - - - - -
Wind Gusts -- -- - -
Humidity 93% 93% 90% 91%
Pressure 30.24 in1024.0 mb 30.50 in1032.8 mb 30.24 in1024.0 mb -
Hour Temp Dew Point Humidity Winds Wind Gusts Pressure Precip Precip Rate Daily Precip Total
02:25 PM -2.0°F-18.9°C -4.5°F-20.3°C 93% - N N -- 30.24 in1024.0 mb 0.00 in0.0 mm 0.00 in0.0 mm 0.00 in0.0 mm
02:15 PM -2.2°F-19.0°C -4.5°F-20.3°C 93% - N N -- 30.24 in1024.0 mb 0.00 in0.0 mm 0.00 in0.0 mm 0.00 in0.0 mm
02:05 PM -2.4°F-19.1°C -4.7°F-20.4°C 93% - N N -- 30.24 in1024.0 mb 0.00 in0.0 mm 0.00 in0.0 mm 0.00 in0.0 mm
01:55 PM -2.6°F-19.2°C -4.9°F-20.5°C 93% - N N -- 30.25 in1024.4 mb 0.00 in0.0 mm 0.00 in0.0 mm 0.00 in0.0 mm
01:45 PM -2.7°F-19.3°C -5.1°F-20.6°C 93% - N N -- 30.25 in1024.4 mb 0.00 in0.0 mm 0.00 in0.0 mm 0.00 in0.0 mm
01:35 PM -2.9°F-19.4°C -5.3°F-20.7°C 93% - N N -- 30.25 in1024.4 mb 0.00 in0.0 mm 0.00 in0.0 mm 0.00 in0.0 mm
01:24 PM -3.1°F-19.5°C -5.4°F-20.8°C 93% - N N -- 30.24 in1024.0 mb 0.00 in0.0 mm 0.00 in0.0 mm 0.00 in0.0 mm
01:14 PM -3.3°F-19.6°C -5.6°F-20.9°C 93% - N N -- 30.24 in1024.0 mb 0.00 in0.0 mm 0.00 in0.0 mm 0.00 in0.0 mm
01:05 PM -3.3°F-19.6°C -5.6°F-20.9°C 93% - N N -- 30.25 in1024.4 mb 0.00 in0.0 mm 0.00 in0.0 mm 0.00 in0.0 mm
12:55 PM -3.5°F-19.7°C -6.2°F-21.2°C 92% - N N -- 30.26 in1024.7 mb 0.00 in0.0 mm 0.00 in0.0 mm 0.00 in0.0 mm
12:44 PM -3.6°F-19.8°C -6.3°F-21.3°C 92% - N N -- 30.27 in1025.1 mb 0.00 in0.0 mm 0.00 in0.0 mm 0.00 in0.0 mm
12:34 PM -3.6°F-19.8°C -6.3°F-21.3°C 92% - N N -- 30.27 in1025.1 mb 0.00 in0.0 mm 0.00 in0.0 mm 0.00 in0.0 mm
12:24 PM -3.8°F-19.9°C -6.5°F-21.4°C 92% - N N -- 30.25 in1024.4 mb 0.00 in0.0 mm 0.00 in0.0 mm 0.00 in0.0 mm
12:13 PM -3.8°F-19.9°C -6.5°F-21.4°C 92% - N N -- 30.26 in1024.7 mb 0.00 in0.0 mm 0.00 in0.0 mm 0.00 in0.0 mm
12:04 PM -3.8°F-19.9°C -6.5°F-21.4°C 92% - N N -- 30.25 in1024.4 mb 0.00 in0.0 mm 0.00 in0.0 mm 0.00 in0.0 mm
11:54 AM -3.6°F-19.8°C -6.3°F-21.3°C 92% - N N -- 30.27 in1025.1 mb 0.00 in0.0 mm 0.00 in0.0 mm 0.00 in0.0 mm
11:44 AM -3.8°F-19.9°C -6.5°F-21.4°C 92% - N N -- 30.28 in1025.4 mb 0.00 in0.0 mm 0.00 in0.0 mm 0.00 in0.0 mm
11:33 AM -3.8°F-19.9°C -6.5°F-21.4°C 92% - N N -- 30.29 in1025.7 mb 0.00 in0.0 mm 0.00 in0.0 mm 0.00 in0.0 mm
11:23 AM -4.0°F-20.0°C -6.7°F-21.5°C 92% - N N -- 30.29 in1025.7 mb 0.00 in0.0 mm 0.00 in0.0 mm 0.00 in0.0 mm
11:08 AM -4.5°F-20.3°C -7.2°F-21.8°C 92% - N N -- 30.32 in1026.8 mb 0.00 in0.0 mm 0.00 in0.0 mm 0.00 in0.0 mm
11:03 AM -4.7°F-20.4°C -7.4°F-21.9°C 92% - N N -- 30.31 in1026.4 mb 0.00 in0.0 mm 0.00 in0.0 mm 0.00 in0.0 mm
10:52 AM -5.1°F-20.6°C -7.8°F-22.1°C 92% - N N -- 30.31 in1026.4 mb 0.00 in0.0 mm 0.00 in0.0 mm 0.00 in0.0 mm
10:42 AM -5.6°F-20.9°C -8.3°F-22.4°C 92% - N N -- 30.31 in1026.4 mb 0.00 in0.0 mm 0.00 in0.0 mm 0.00 in0.0 mm
10:32 AM -6.2°F-21.2°C -9.2°F-22.9°C 91% - N N -- 30.31 in1026.4 mb 0.00 in0.0 mm 0.00 in0.0 mm 0.00 in0.0 mm
10:22 AM -6.7°F-21.5°C -9.8°F-23.2°C 91% - N N -- 30.31 in1026.4 mb 0.00 in0.0 mm 0.00 in0.0 mm 0.00 in0.0 mm
10:08 AM -7.2°F-21.8°C -10.3°F-23.5°C 91% - N N -- 30.31 in1026.4 mb 0.00 in0.0 mm 0.00 in0.0 mm 0.00 in0.0 mm
10:01 AM -7.4°F-21.9°C -10.5°F-23.6°C 91% - N N -- 30.31 in1026.4 mb 0.00 in0.0 mm 0.00 in0.0 mm 0.00 in0.0 mm
09:51 AM -7.6°F-22.0°C -10.7°F-23.7°C 91% - N N -- 30.31 in1026.4 mb 0.00 in0.0 mm 0.00 in0.0 mm 0.00 in0.0 mm
09:45 AM -7.6°F-22.0°C -10.7°F-23.7°C 91% - N N -- 30.31 in1026.4 mb 0.00 in0.0 mm 0.00 in0.0 mm 0.00 in0.0 mm
09:30 AM -7.8°F-22.1°C -10.8°F-23.8°C 91% - N N -- 30.30 in1026.1 mb 0.00 in0.0 mm 0.00 in0.0 mm 0.00 in0.0 mm
09:25 AM -7.8°F-22.1°C -10.8°F-23.8°C 91% - N N -- 30.31 in1026.4 mb 0.00 in0.0 mm 0.00 in0.0 mm 0.00 in0.0 mm
09:14 AM -7.8°F-22.1°C -10.8°F-23.8°C 91% - N N -- 30.32 in1026.8 mb 0.00 in0.0 mm 0.00 in0.0 mm 0.00 in0.0 mm
09:05 AM -8.0°F-22.2°C -11.0°F-23.9°C 91% - N N -- 30.33 in1027.1 mb 0.00 in0.0 mm 0.00 in0.0 mm 0.00 in0.0 mm
08:54 AM -8.0°F-22.2°C -11.0°F-23.9°C 91% - N N -- 30.34 in1027.4 mb 0.00 in0.0 mm 0.00 in0.0 mm 0.00 in0.0 mm
08:44 AM -8.0°F-22.2°C -11.0°F-23.9°C 91% - N N -- 30.34 in1027.4 mb 0.00 in0.0 mm 0.00 in0.0 mm 0.00 in0.0 mm
08:24 AM -8.0°F-22.2°C -11.2°F-24.0°C 90% - N N -- 30.33 in1027.1 mb 0.00 in0.0 mm 0.00 in0.0 mm 0.00 in0.0 mm
08:13 AM -8.0°F-22.2°C -11.2°F-24.0°C 90% - N N -- 30.34 in1027.4 mb 0.00 in0.0 mm 0.00 in0.0 mm 0.00 in0.0 mm
08:04 AM -8.1°F-22.3°C -11.4°F-24.1°C 90% - N N -- 30.34 in1027.4 mb 0.00 in0.0 mm 0.00 in0.0 mm 0.00 in0.0 mm
07:54 AM -8.3°F-22.4°C -11.6°F-24.2°C 90% - N N -- 30.34 in1027.4 mb 0.00 in0.0 mm 0.00 in0.0 mm 0.00 in0.0 mm
07:44 AM -8.3°F-22.4°C -11.6°F-24.2°C 90% - N N -- 30.35 in1027.8 mb 0.00 in0.0 mm 0.00 in0.0 mm 0.00 in0.0 mm
07:33 AM -8.3°F-22.4°C -11.6°F-24.2°C 90% - N N -- 30.37 in1028.4 mb 0.00 in0.0 mm 0.00 in0.0 mm 0.00 in0.0 mm
07:23 AM -8.3°F-22.4°C -11.6°F-24.2°C 90% - N N -- 30.36 in1028.1 mb 0.00 in0.0 mm 0.00 in0.0 mm 0.00 in0.0 mm
07:12 AM -8.3°F-22.4°C -11.6°F-24.2°C 90% - N N -- 30.36 in1028.1 mb 0.00 in0.0 mm 0.00 in0.0 mm 0.00 in0.0 mm
07:03 AM -8.1°F-22.3°C -11.4°F-24.1°C 90% - N N -- 30.37 in1028.4 mb 0.00 in0.0 mm 0.00 in0.0 mm 0.00 in0.0 mm
06:52 AM -8.1°F-22.3°C -11.4°F-24.1°C 90% - N N -- 30.37 in1028.4 mb 0.00 in0.0 mm 0.00 in0.0 mm 0.00 in0.0 mm
06:41 AM -8.1°F-22.3°C -11.4°F-24.1°C 90% - N N -- 30.38 in1028.8 mb 0.00 in0.0 mm 0.00 in0.0 mm 0.00 in0.0 mm
06:31 AM -8.1°F-22.3°C -11.4°F-24.1°C 90% - N N -- 30.38 in1028.8 mb 0.00 in0.0 mm 0.00 in0.0 mm 0.00 in0.0 mm
06:21 AM -8.3°F-22.4°C -11.6°F-24.2°C 90% - N N -- 30.38 in1028.8 mb 0.00 in0.0 mm 0.00 in0.0 mm 0.00 in0.0 mm
06:12 AM -8.3°F-22.4°C -11.6°F-24.2°C 90% - N N -- 30.38 in1028.8 mb 0.00 in0.0 mm 0.00 in0.0 mm 0.00 in0.0 mm
06:01 AM -8.5°F-22.5°C -11.7°F-24.3°C 90% - N N -- 30.38 in1028.8 mb 0.00 in0.0 mm 0.00 in0.0 mm 0.00 in0.0 mm
05:51 AM -8.5°F-22.5°C -11.7°F-24.3°C 90% - N N -- 30.40 in1029.5 mb 0.00 in0.0 mm 0.00 in0.0 mm 0.00 in0.0 mm
05:41 AM -8.7°F-22.6°C -11.9°F-24.4°C 90% - N N -- 30.40 in1029.5 mb 0.00 in0.0 mm 0.00 in0.0 mm 0.00 in0.0 mm
05:31 AM -8.9°F-22.7°C -12.1°F-24.5°C 90% - N N -- 30.41 in1029.8 mb 0.00 in0.0 mm 0.00 in0.0 mm 0.00 in0.0 mm
05:21 AM -8.9°F-22.7°C -12.1°F-24.5°C 90% - N N -- 30.42 in1030.1 mb 0.00 in0.0 mm 0.00 in0.0 mm 0.00 in0.0 mm
05:11 AM -8.9°F-22.7°C -12.1°F-24.5°C 90% - N N -- 30.42 in1030.1 mb 0.00 in0.0 mm 0.00 in0.0 mm 0.00 in0.0 mm
05:00 AM -8.9°F-22.7°C -12.1°F-24.5°C 90% - N N -- 30.42 in1030.1 mb 0.00 in0.0 mm 0.00 in0.0 mm 0.00 in0.0 mm
04:51 AM -8.9°F-22.7°C -12.1°F-24.5°C 90% - N N -- 30.42 in1030.1 mb 0.00 in0.0 mm 0.00 in0.0 mm 0.00 in0.0 mm
04:41 AM -8.9°F-22.7°C -12.1°F-24.5°C 90% - N N -- 30.42 in1030.1 mb 0.00 in0.0 mm 0.00 in0.0 mm 0.00 in0.0 mm
04:30 AM -8.9°F-22.7°C -12.1°F-24.5°C 90% - N N -- 30.42 in1030.1 mb 0.00 in0.0 mm 0.00 in0.0 mm 0.00 in0.0 mm
04:20 AM -8.9°F-22.7°C -12.1°F-24.5°C 90% - N N -- 30.43 in1030.5 mb 0.00 in0.0 mm 0.00 in0.0 mm 0.00 in0.0 mm
04:09 AM -8.9°F-22.7°C -12.1°F-24.5°C 90% - N N -- 30.43 in1030.5 mb 0.00 in0.0 mm 0.00 in0.0 mm 0.00 in0.0 mm
03:59 AM -8.9°F-22.7°C -12.1°F-24.5°C 90% - N N -- 30.43 in1030.5 mb 0.00 in0.0 mm 0.00 in0.0 mm 0.00 in0.0 mm
03:50 AM -9.0°F-22.8°C -12.3°F-24.6°C 90% - N N -- 30.43 in1030.5 mb 0.00 in0.0 mm 0.00 in0.0 mm 0.00 in0.0 mm
03:39 AM -9.0°F-22.8°C -12.3°F-24.6°C 90% - N N -- 30.43 in1030.5 mb 0.00 in0.0 mm 0.00 in0.0 mm 0.00 in0.0 mm
03:29 AM -9.2°F-22.9°C -12.5°F-24.7°C 90% - N N -- 30.44 in1030.8 mb 0.00 in0.0 mm 0.00 in0.0 mm 0.00 in0.0 mm
03:19 AM -9.2°F-22.9°C -12.5°F-24.7°C 90% - N N -- 30.45 in1031.2 mb 0.00 in0.0 mm 0.00 in0.0 mm 0.00 in0.0 mm
03:09 AM -9.2°F-22.9°C -12.5°F-24.7°C 90% - N N -- 30.46 in1031.5 mb 0.00 in0.0 mm 0.00 in0.0 mm 0.00 in0.0 mm
02:59 AM -9.4°F-23.0°C -12.6°F-24.8°C 90% - N N -- 30.46 in1031.5 mb 0.00 in0.0 mm 0.00 in0.0 mm 0.00 in0.0 mm
02:49 AM -9.4°F-23.0°C -12.6°F-24.8°C 90% - N N -- 30.46 in1031.5 mb 0.00 in0.0 mm 0.00 in0.0 mm 0.00 in0.0 mm
02:38 AM -9.4°F-23.0°C -12.6°F-24.8°C 90% - N N -- 30.46 in1031.5 mb 0.00 in0.0 mm 0.00 in0.0 mm 0.00 in0.0 mm
02:29 AM -9.2°F-22.9°C -12.5°F-24.7°C 90% - N N -- 30.46 in1031.5 mb 0.00 in0.0 mm 0.00 in0.0 mm 0.00 in0.0 mm
02:18 AM -9.2°F-22.9°C -12.5°F-24.7°C 90% - N N -- 30.46 in1031.5 mb 0.00 in0.0 mm 0.00 in0.0 mm 0.00 in0.0 mm
02:08 AM -9.2°F-22.9°C -12.5°F-24.7°C 90% - N N -- 30.45 in1031.2 mb 0.00 in0.0 mm 0.00 in0.0 mm 0.00 in0.0 mm
01:57 AM -9.0°F-22.8°C -12.3°F-24.6°C 90% - N N -- 30.45 in1031.2 mb 0.00 in0.0 mm 0.00 in0.0 mm 0.00 in0.0 mm
01:48 AM -9.0°F-22.8°C -12.3°F-24.6°C 90% - N N -- 30.45 in1031.2 mb 0.00 in0.0 mm 0.00 in0.0 mm 0.00 in0.0 mm
01:38 AM -9.0°F-22.8°C -12.3°F-24.6°C 90% - N N -- 30.46 in1031.5 mb 0.00 in0.0 mm 0.00 in0.0 mm 0.00 in0.0 mm
01:28 AM -9.0°F-22.8°C -12.3°F-24.6°C 90% - N N -- 30.47 in1031.8 mb 0.00 in0.0 mm 0.00 in0.0 mm 0.00 in0.0 mm
01:17 AM -9.0°F-22.8°C -12.3°F-24.6°C 90% - N N -- 30.46 in1031.5 mb 0.00 in0.0 mm 0.00 in0.0 mm 0.00 in0.0 mm
01:07 AM -9.0°F-22.8°C -12.3°F-24.6°C 90% - N N -- 30.46 in1031.5 mb 0.00 in0.0 mm 0.00 in0.0 mm 0.00 in0.0 mm
12:57 AM -9.0°F-22.8°C -12.3°F-24.6°C 90% - N N -- 30.46 in1031.5 mb 0.00 in0.0 mm 0.00 in0.0 mm 0.00 in0.0 mm
12:47 AM -9.2°F-22.9°C -12.5°F-24.7°C 90% - N N -- 30.46 in1031.5 mb 0.00 in0.0 mm 0.00 in0.0 mm 0.00 in0.0 mm
12:37 AM -9.2°F-22.9°C -12.5°F-24.7°C 90% - N N -- 30.49 in1032.5 mb 0.00 in0.0 mm 0.00 in0.0 mm 0.00 in0.0 mm
12:27 AM -9.2°F-22.9°C -12.5°F-24.7°C 90% - N N -- 30.50 in1032.8 mb 0.00 in0.0 mm 0.00 in0.0 mm 0.00 in0.0 mm
12:16 AM -9.2°F-22.9°C -12.5°F-24.7°C 90% - N N -- 30.48 in1032.2 mb 0.00 in0.0 mm 0.00 in0.0 mm 0.00 in0.0 mm
12:06 AM -9.2°F-22.9°C -12.5°F-24.7°C 90% - N N -- 30.47 in1031.8 mb 0.00 in0.0 mm 0.00 in0.0 mm 0.00 in0.0 mm